Terminal Aerodrome Forecast
Issued by NWS Missoula, MT

Home | Current Version | Previous Version | Text Only | Print | Product List | Glossary On
Versions: 1 2 3 4 5 6 7 8 9 10 11 12 13 14
514
FTUS45 KMSO 301120
TAFMSO
TAF
KMSO 301120Z 3012/0112 VRB06KT P6SM -SHRA OVC060
     FM301400 28008KT 6SM -SHRA BR OVC050
     FM301900 29016G25KT P6SM VCSH BKN070
     FM010200 30008KT P6SM VCSH OVC050=

USA.gov is the U.S. government's official web portal to all federal, state and local government web resources and services.